createdAt,value
2018-11-11T00:00:12.719Z,32.20
2018-11-11T00:02:41.442Z,33.43
2018-11-11T00:05:10.813Z,33.43
2018-11-11T00:07:39.530Z,33.10
2018-11-11T00:10:08.179Z,41.10
2018-11-11T00:12:36.989Z,31.87
2018-11-11T00:15:06.576Z,33.00
2018-11-11T00:17:35.020Z,31.90
2018-11-11T00:20:03.503Z,31.53
2018-11-11T00:22:31.938Z,34.03
2018-11-11T00:25:00.363Z,33.40
2018-11-11T00:27:28.837Z,35.07
2018-11-11T00:29:57.571Z,34.63
2018-11-11T00:32:26.045Z,31.67
2018-11-11T00:34:54.475Z,28.33
2018-11-11T00:37:22.910Z,31.37
2018-11-11T00:39:51.388Z,32.90
2018-11-11T00:42:19.828Z,33.30
2018-11-11T00:44:48.276Z,32.47
2018-11-11T00:47:16.752Z,31.10
2018-11-11T00:49:45.212Z,30.33
2018-11-11T00:52:13.644Z,36.37
2018-11-11T00:54:42.077Z,33.47
2018-11-11T00:57:10.492Z,35.73
2018-11-11T00:59:38.921Z,30.47
2018-11-11T01:02:07.585Z,31.23
2018-11-11T01:04:36.009Z,34.80
2018-11-11T01:07:05.263Z,32.70
2018-11-11T01:09:33.714Z,32.90
2018-11-11T01:12:02.163Z,27.83
2018-11-11T01:14:30.605Z,29.17
2018-11-11T01:16:59.083Z,29.90
2018-11-11T01:19:27.508Z,28.83
2018-11-11T01:21:55.931Z,34.87
2018-11-11T01:24:24.493Z,31.03
2018-11-11T01:26:52.963Z,31.83
2018-11-11T01:29:21.389Z,27.40
2018-11-11T01:31:49.835Z,26.90
2018-11-11T01:34:18.274Z,27.47
2018-11-11T01:36:46.821Z,26.20
2018-11-11T01:39:15.245Z,28.83
2018-11-11T01:41:43.714Z,29.83
2018-11-11T01:44:12.152Z,28.10
2018-11-11T01:46:40.621Z,30.90
2018-11-11T01:49:09.053Z,26.53
2018-11-11T01:51:38.147Z,27.23
2018-11-11T01:54:06.627Z,26.30
2018-11-11T01:56:35.033Z,29.53
2018-11-11T01:59:03.537Z,31.13
2018-11-11T02:01:31.961Z,26.27
2018-11-11T02:04:00.431Z,22.83
2018-11-11T02:06:28.834Z,27.83
2018-11-11T02:08:57.261Z,26.90
2018-11-11T02:11:25.719Z,25.63
2018-11-11T02:13:54.173Z,28.60
2018-11-11T02:16:22.753Z,31.10
2018-11-11T02:18:51.265Z,30.47
2018-11-11T02:21:19.715Z,25.30
2018-11-11T02:23:48.154Z,26.67
2018-11-11T02:26:16.593Z,28.00
2018-11-11T02:28:45.079Z,28.67
2018-11-11T02:31:13.498Z,27.50
2018-11-11T02:33:41.951Z,27.23
2018-11-11T02:36:10.369Z,25.30
2018-11-11T02:38:38.882Z,27.00
2018-11-11T02:41:07.625Z,27.93
2018-11-11T02:43:36.112Z,25.97
2018-11-11T02:46:04.631Z,26.97
2018-11-11T02:48:33.098Z,24.90
2018-11-11T02:51:01.540Z,28.93
2018-11-11T02:53:30.010Z,25.63
2018-11-11T02:55:58.430Z,27.73
2018-11-11T02:58:26.870Z,25.13
2018-11-11T03:00:55.356Z,25.77
2018-11-11T03:03:23.786Z,28.07
2018-11-11T03:05:52.249Z,25.27
2018-11-11T03:08:20.702Z,25.60
2018-11-11T03:10:49.151Z,24.80
2018-11-11T03:13:17.626Z,27.37
2018-11-11T03:15:46.070Z,28.33
2018-11-11T03:18:14.498Z,27.47
2018-11-11T03:20:42.928Z,24.20
2018-11-11T03:23:11.456Z,22.97
2018-11-11T03:25:39.887Z,26.60
2018-11-11T03:28:08.328Z,25.20
2018-11-11T03:30:36.753Z,26.57
2018-11-11T03:33:05.276Z,26.47
2018-11-11T03:35:33.688Z,28.00
2018-11-11T03:38:02.094Z,29.13
2018-11-11T03:40:30.598Z,36.43
2018-11-11T03:42:59.040Z,40.77
2018-11-11T03:45:27.466Z,46.23
2018-11-11T03:47:55.921Z,46.33
2018-11-11T03:50:24.398Z,46.30
2018-11-11T03:52:52.848Z,45.03
2018-11-11T03:55:21.287Z,44.90
2018-11-11T03:57:49.729Z,47.77
2018-11-11T04:00:18.337Z,41.90
2018-11-11T04:02:46.785Z,46.90
2018-11-11T04:05:16.372Z,46.50
2018-11-11T04:07:44.880Z,53.23
2018-11-11T04:10:14.953Z,39.47
2018-11-11T04:12:43.518Z,44.50
2018-11-11T04:15:13.415Z,43.67
2018-11-11T04:17:41.878Z,44.47
2018-11-11T04:20:12.857Z,43.47
2018-11-11T04:22:41.304Z,44.57
2018-11-11T04:25:09.873Z,43.20
2018-11-11T04:27:38.334Z,42.17
2018-11-11T04:30:07.689Z,42.10
2018-11-11T04:32:36.143Z,33.70
2018-11-11T04:35:05.041Z,38.23
2018-11-11T04:37:33.514Z,35.67
2018-11-11T04:40:01.957Z,38.20
2018-11-11T04:42:30.401Z,40.63
2018-11-11T04:44:58.851Z,39.90
2018-11-11T04:47:27.289Z,34.07
2018-11-11T04:49:55.709Z,39.43
2018-11-11T04:52:24.162Z,43.60
2018-11-11T04:54:52.595Z,44.37
2018-11-11T04:57:21.019Z,44.07
2018-11-11T04:59:49.476Z,48.70
2018-11-11T05:02:17.936Z,51.10
2018-11-11T05:04:46.475Z,48.87
2018-11-11T05:07:14.835Z,44.07
2018-11-11T05:09:43.255Z,36.87
2018-11-11T05:12:11.695Z,35.13
2018-11-11T05:14:40.139Z,35.50
2018-11-11T05:17:08.636Z,36.63
2018-11-11T05:19:37.113Z,38.10
2018-11-11T05:22:06.288Z,38.87
2018-11-11T05:24:34.719Z,43.23
2018-11-11T05:27:03.158Z,47.03
2018-11-11T05:29:31.604Z,49.03
2018-11-11T05:32:00.035Z,49.77
2018-11-11T05:34:28.488Z,46.17
2018-11-11T05:36:56.922Z,46.67
2018-11-11T05:39:25.376Z,44.07
2018-11-11T05:41:53.827Z,45.40
2018-11-11T05:44:22.246Z,45.90
2018-11-11T05:46:50.698Z,45.73
2018-11-11T05:49:19.171Z,47.97
2018-11-11T05:51:47.661Z,61.60
2018-11-11T05:54:16.290Z,57.67
2018-11-11T05:56:44.746Z,65.70
2018-11-11T05:59:13.232Z,74.57
2018-11-11T06:01:41.714Z,77.70
2018-11-11T06:04:10.161Z,86.80
2018-11-11T06:06:38.611Z,86.43
2018-11-11T06:09:09.498Z,79.30
2018-11-11T06:11:38.326Z,87.20
2018-11-11T06:14:06.787Z,81.53
2018-11-11T06:16:35.354Z,91.27
2018-11-11T06:19:03.784Z,92.30
2018-11-11T06:21:32.226Z,86.20
2018-11-11T06:24:00.678Z,88.70
2018-11-11T06:26:29.096Z,86.43
2018-11-11T06:28:57.677Z,79.20
2018-11-11T06:31:26.136Z,95.37
2018-11-11T06:33:54.601Z,91.17
2018-11-11T06:36:23.020Z,94.90
2018-11-11T06:38:51.440Z,91.33
2018-11-11T06:41:19.854Z,91.17
2018-11-11T06:43:48.316Z,89.57
2018-11-11T06:46:16.765Z,79.63
2018-11-11T06:48:45.202Z,74.93
2018-11-11T06:51:13.672Z,67.27
2018-11-11T06:53:42.120Z,59.03
2018-11-11T06:56:10.564Z,63.60
2018-11-11T06:58:39.032Z,61.63
2018-11-11T07:01:07.498Z,55.67
2018-11-11T07:03:55.226Z,55.10
2018-11-11T07:06:24.127Z,46.63
2018-11-11T07:08:52.572Z,55.17
2018-11-11T07:11:21.100Z,43.53
2018-11-11T07:13:49.657Z,47.50
2018-11-11T07:16:18.070Z,45.07
2018-11-11T07:18:47.018Z,42.13
2018-11-11T07:21:16.074Z,35.73
2018-11-11T07:23:44.780Z,41.73
2018-11-11T07:26:13.359Z,37.43
2018-11-11T07:28:41.782Z,40.70
2018-11-11T07:31:10.329Z,34.00
2018-11-11T07:33:38.864Z,34.47
2018-11-11T07:36:08.495Z,33.77
2018-11-11T07:38:36.907Z,31.97
2018-11-11T07:41:05.434Z,35.53
2018-11-11T07:43:33.883Z,32.93
2018-11-11T07:46:02.561Z,27.03
2018-11-11T07:48:31.007Z,32.93
2018-11-11T07:50:59.423Z,30.93
2018-11-11T07:53:28.175Z,32.27
2018-11-11T07:55:56.597Z,34.97
2018-11-11T07:58:25.147Z,35.43
2018-11-11T08:00:53.572Z,26.47
2018-11-11T08:03:22.011Z,30.50
2018-11-11T08:05:50.432Z,28.37
2018-11-11T08:08:18.928Z,29.53
2018-11-11T08:10:58.616Z,29.83
2018-11-11T08:13:27.122Z,27.80
2018-11-11T08:15:55.606Z,26.07
2018-11-11T08:18:24.073Z,24.40
2018-11-11T08:20:52.535Z,27.00
2018-11-11T08:23:20.951Z,27.03
2018-11-11T08:25:49.439Z,28.10
2018-11-11T08:28:17.917Z,23.77
2018-11-11T08:30:46.391Z,30.10
2018-11-11T08:33:14.873Z,22.17
2018-11-11T08:35:43.375Z,22.93
2018-11-11T08:38:11.803Z,22.07
2018-11-11T08:40:40.332Z,22.40
2018-11-11T08:43:08.694Z,18.37
2018-11-11T08:45:37.158Z,21.97
2018-11-11T08:48:05.853Z,22.27
2018-11-11T08:50:34.314Z,21.47
2018-11-11T08:53:02.732Z,21.73
2018-11-11T08:55:31.209Z,22.40
2018-11-11T08:57:59.712Z,20.30
2018-11-11T09:00:28.421Z,19.57
2018-11-11T09:02:56.937Z,20.80
2018-11-11T09:05:25.371Z,20.93
2018-11-11T09:07:53.823Z,18.50
2018-11-11T09:10:22.405Z,21.57
2018-11-11T09:12:50.991Z,18.53
2018-11-11T09:15:19.497Z,21.87
2018-11-11T09:17:47.960Z,20.80
2018-11-11T09:20:16.408Z,20.07
2018-11-11T09:22:44.885Z,19.37
2018-11-11T09:25:13.328Z,18.47
2018-11-11T09:27:42.398Z,21.83
2018-11-11T09:30:13.133Z,21.20
2018-11-11T09:32:41.802Z,18.50
2018-11-11T09:35:10.742Z,17.93
2018-11-11T09:37:39.675Z,19.73
2018-11-11T09:40:09.479Z,19.17
2018-11-11T09:42:38.015Z,21.07
2018-11-11T09:45:08.980Z,17.60
2018-11-11T09:47:37.483Z,18.93
2018-11-11T09:50:08.369Z,20.90
2018-11-11T09:52:36.943Z,19.10
2018-11-11T09:55:06.245Z,19.10
2018-11-11T09:57:34.768Z,19.33
2018-11-11T10:00:03.309Z,18.90
2018-11-11T10:02:31.852Z,16.47
2018-11-11T10:05:07.592Z,18.13
2018-11-11T10:07:45.809Z,16.73
2018-11-11T10:10:20.472Z,16.20
2018-11-11T10:12:59.119Z,16.40
2018-11-11T10:15:32.843Z,15.47
2018-11-11T10:19:06.577Z,14.63
2018-11-11T10:21:44.936Z,14.83
2018-11-11T10:24:47.778Z,15.57
2018-11-11T10:27:23.411Z,15.93
2018-11-11T10:29:54.783Z,16.33
2018-11-11T10:33:38.502Z,15.90
2018-11-11T10:36:27.757Z,15.00
2018-11-11T10:39:05.029Z,14.67
2018-11-11T10:42:41.862Z,14.33
2018-11-11T10:45:15.332Z,15.97
2018-11-11T10:47:49.659Z,15.30
2018-11-11T10:50:23.974Z,12.93
2018-11-11T10:52:52.412Z,15.97
2018-11-11T10:55:20.841Z,15.83
2018-11-11T10:57:49.276Z,16.23
2018-11-11T11:00:23.283Z,14.83
2018-11-11T11:02:58.002Z,15.20
2018-11-11T11:05:26.528Z,15.97
2018-11-11T11:07:55.360Z,14.73
2018-11-11T11:10:23.818Z,14.93
2018-11-11T11:12:52.260Z,14.77
2018-11-11T11:15:20.754Z,18.20
2018-11-11T11:17:49.219Z,18.00
2018-11-11T11:20:17.655Z,36.80
2018-11-11T11:22:46.184Z,18.87
2018-11-11T11:25:14.584Z,17.73
2018-11-11T11:27:43.039Z,18.37
2018-11-11T11:30:13.023Z,19.17
2018-11-11T11:32:41.522Z,17.60
2018-11-11T11:35:10.314Z,20.17
2018-11-11T11:37:39.492Z,17.87
2018-11-11T11:40:09.104Z,17.33
2018-11-11T11:42:37.900Z,17.30
2018-11-11T11:45:07.494Z,17.23
2018-11-11T11:47:36.047Z,16.83
2018-11-11T11:50:05.918Z,17.10
2018-11-11T11:52:34.366Z,16.97
2018-11-11T11:55:02.817Z,17.73
2018-11-11T11:57:31.270Z,19.10
2018-11-11T11:59:59.732Z,19.97
2018-11-11T12:02:28.211Z,22.37
2018-11-11T12:04:56.695Z,22.80
2018-11-11T12:07:25.247Z,22.43
2018-11-11T12:09:53.741Z,23.00
2018-11-11T12:12:22.297Z,23.53
2018-11-11T12:14:50.781Z,23.57
2018-11-11T12:17:19.417Z,22.80
2018-11-11T12:19:47.870Z,23.50
2018-11-11T12:22:16.329Z,22.87
2018-11-11T12:24:44.774Z,23.43
2018-11-11T12:27:13.255Z,23.13
2018-11-11T12:29:41.797Z,21.60
2018-11-11T12:32:10.309Z,21.83
2018-11-11T12:34:38.877Z,22.50
2018-11-11T12:37:07.426Z,21.57
2018-11-11T12:39:36.160Z,22.10
2018-11-11T12:42:04.569Z,22.73
2018-11-11T12:44:33.075Z,22.80
2018-11-11T12:47:01.793Z,22.00
2018-11-11T12:49:30.136Z,22.50
2018-11-11T12:51:58.627Z,22.17
2018-11-11T12:54:27.142Z,21.97
2018-11-11T12:56:55.626Z,21.57
2018-11-11T12:59:24.108Z,22.00
2018-11-11T13:01:52.641Z,20.77
2018-11-11T13:04:21.140Z,22.37
2018-11-11T13:06:49.640Z,20.40
2018-11-11T13:09:18.129Z,20.27
2018-11-11T13:11:46.688Z,19.40
2018-11-11T13:14:15.160Z,19.80
2018-11-11T13:16:43.760Z,18.77
2018-11-11T13:19:12.380Z,21.03
2018-11-11T13:21:41.119Z,22.80
2018-11-11T13:24:09.588Z,21.17
2018-11-11T13:26:38.068Z,20.10
2018-11-11T13:29:06.635Z,23.07
2018-11-11T13:31:35.136Z,23.80
2018-11-11T13:34:03.715Z,22.87
2018-11-11T13:36:32.310Z,23.77
2018-11-11T13:39:00.826Z,23.83
2018-11-11T13:41:29.345Z,27.27
2018-11-11T13:43:57.832Z,28.27
2018-11-11T13:46:26.415Z,26.97
2018-11-11T13:48:54.873Z,25.73
2018-11-11T13:51:23.384Z,25.50
2018-11-11T13:53:51.963Z,25.53
2018-11-11T13:56:20.444Z,23.87
2018-11-11T13:58:49.300Z,23.80
2018-11-11T14:01:17.797Z,25.90
2018-11-11T14:03:46.293Z,29.47
2018-11-11T14:06:14.850Z,25.67
2018-11-11T14:08:43.410Z,23.30
2018-11-11T14:11:11.999Z,22.70
2018-11-11T14:13:40.468Z,20.77
2018-11-11T14:16:09.233Z,23.73
2018-11-11T14:18:38.472Z,18.83
2018-11-11T14:21:06.910Z,19.90
2018-11-11T14:23:35.378Z,19.53
2018-11-11T14:26:03.909Z,19.43
2018-11-11T14:28:32.363Z,19.57
2018-11-11T14:31:00.900Z,22.73
2018-11-11T14:33:29.381Z,36.60
2018-11-11T14:35:57.912Z,29.73
2018-11-11T14:38:26.481Z,22.83
2018-11-11T14:40:54.975Z,21.37
2018-11-11T14:43:23.557Z,23.65
2018-11-11T14:45:52.056Z,21.13
2018-11-11T14:48:20.527Z,20.50
2018-11-11T14:50:49.119Z,18.20
2018-11-11T14:53:17.601Z,16.73
2018-11-11T14:55:46.079Z,16.97
2018-11-11T14:58:14.823Z,18.30
2018-11-11T15:00:43.326Z,18.63
2018-11-11T15:03:13.243Z,17.63
2018-11-11T15:05:41.882Z,23.37
2018-11-11T15:08:10.485Z,19.13
2018-11-11T15:10:39.404Z,20.37
2018-11-11T15:13:09.068Z,21.60
2018-11-11T15:15:38.411Z,18.33
2018-11-11T15:18:07.277Z,19.27
2018-11-11T15:20:36.382Z,23.10
2018-11-11T15:23:05.147Z,21.60
2018-11-11T15:25:34.084Z,19.00
2018-11-11T15:28:02.783Z,25.93
2018-11-11T15:30:32.748Z,22.40
2018-11-11T15:33:02.097Z,20.47
2018-11-11T15:35:31.802Z,20.60
2018-11-11T15:38:00.402Z,20.53
2018-11-11T15:40:33.438Z,19.73
2018-11-11T15:43:02.515Z,18.97
2018-11-11T15:45:32.731Z,21.80
2018-11-11T15:48:02.338Z,16.43
2018-11-11T15:50:32.332Z,17.67
2018-11-11T15:53:04.258Z,16.23
2018-11-11T15:55:34.396Z,21.63
2018-11-11T15:58:03.318Z,16.10
2018-11-11T16:00:33.504Z,15.87
2018-11-11T16:03:02.375Z,20.37
2018-11-11T16:05:31.644Z,20.03
2018-11-11T16:08:01.137Z,18.23
2018-11-11T16:10:32.115Z,20.03
2018-11-11T16:13:01.966Z,20.20
2018-11-11T16:15:36.823Z,18.47
2018-11-11T16:18:08.838Z,21.70
2018-11-11T16:20:38.532Z,23.20
2018-11-11T16:23:08.382Z,22.20
2018-11-11T16:25:37.548Z,29.37
2018-11-11T16:28:06.809Z,33.57
2018-11-11T16:30:36.954Z,39.23
2018-11-11T16:33:07.221Z,33.53
2018-11-11T16:35:36.762Z,26.50
2018-11-11T16:38:06.656Z,31.77
2018-11-11T16:40:37.321Z,33.23
2018-11-11T16:43:06.912Z,32.03
2018-11-11T16:45:36.854Z,28.93
2018-11-11T16:48:07.925Z,29.23
2018-11-11T16:50:38.745Z,24.03
2018-11-11T16:53:09.120Z,24.30
2018-11-11T16:55:38.838Z,24.43
2018-11-11T16:58:08.127Z,25.20
2018-11-11T17:00:38.116Z,22.50
2018-11-11T17:03:08.630Z,23.63
2018-11-11T17:05:38.725Z,23.33
2018-11-11T17:10:36.389Z,25.10
2018-11-11T17:13:08.058Z,23.67
2018-11-11T17:15:37.324Z,22.90
2018-11-11T17:18:06.977Z,25.70
2018-11-11T17:20:36.826Z,22.67
2018-11-11T17:23:07.940Z,22.93
2018-11-11T17:25:37.813Z,23.43
2018-11-11T17:28:12.120Z,28.13
2018-11-11T17:30:41.357Z,26.97
2018-11-11T17:33:12.036Z,25.57
2018-11-11T17:35:41.269Z,23.40
2018-11-11T17:38:11.111Z,24.77
2018-11-11T17:40:40.470Z,48.03
2018-11-11T17:43:10.059Z,50.57
2018-11-11T17:45:39.992Z,43.57
2018-11-11T17:48:09.395Z,45.93
2018-11-11T17:50:38.916Z,35.90
2018-11-11T17:53:08.264Z,25.40
2018-11-11T17:55:37.735Z,24.10
2018-11-11T17:58:07.381Z,27.93
2018-11-11T18:00:36.752Z,22.57
2018-11-11T18:03:06.466Z,22.50
2018-11-11T18:05:36.781Z,20.60
2018-11-11T18:08:06.533Z,26.63
2018-11-11T18:10:37.402Z,28.93
2018-11-11T18:13:07.975Z,28.07
2018-11-11T18:15:39.872Z,28.90
2018-11-11T18:20:35.972Z,29.20
2018-11-11T18:23:05.861Z,33.33
2018-11-11T18:25:36.818Z,28.37
2018-11-11T18:28:06.369Z,32.33
2018-11-11T18:30:36.866Z,28.23
2018-11-11T18:33:06.596Z,32.67
2018-11-11T18:35:36.253Z,36.20
2018-11-11T18:38:05.668Z,29.77
2018-11-11T18:40:36.900Z,30.30
2018-11-11T18:43:09.481Z,27.50
2018-11-11T18:45:39.252Z,36.87
2018-11-11T18:48:08.719Z,40.27
2018-11-11T18:50:39.704Z,31.70
2018-11-11T18:53:11.288Z,29.03
2018-11-11T18:55:41.445Z,31.73
2018-11-11T18:58:11.455Z,33.97
2018-11-11T19:00:41.579Z,34.20
2018-11-11T19:03:11.910Z,31.93
2018-11-11T19:05:42.506Z,31.60
2018-11-11T19:08:12.929Z,28.67
2018-11-11T19:10:44.022Z,28.83
2018-11-11T19:13:14.254Z,28.03
2018-11-11T19:15:44.580Z,32.20
2018-11-11T19:18:16.895Z,33.23
2018-11-11T19:20:47.262Z,32.97
2018-11-11T19:25:43.803Z,32.17
2018-11-11T19:28:14.271Z,32.63
2018-11-11T19:30:44.377Z,30.40
2018-11-11T19:33:15.055Z,26.30
2018-11-11T19:35:44.699Z,30.43
2018-11-11T19:38:16.046Z,32.57
2018-11-11T19:40:45.521Z,28.93
2018-11-11T19:43:15.803Z,25.57
2018-11-11T19:45:47.712Z,25.43
2018-11-11T19:50:46.627Z,30.60
2018-11-11T19:53:17.177Z,29.43
2018-11-11T19:55:49.235Z,32.20
2018-11-11T20:00:47.297Z,33.67
2018-11-11T20:03:19.375Z,44.07
2018-11-11T20:05:49.950Z,39.37
2018-11-11T20:08:21.655Z,44.43
2018-11-11T20:13:24.100Z,42.90
2018-11-11T20:15:54.478Z,45.57
2018-11-11T20:18:24.568Z,45.80
2018-11-11T20:20:55.033Z,38.33
2018-11-11T20:23:25.475Z,38.40
2018-11-11T20:25:55.774Z,39.23
2018-11-11T20:28:26.510Z,38.03
2018-11-11T20:30:56.601Z,39.17
2018-11-11T20:33:26.819Z,33.67
2018-11-11T20:35:57.236Z,36.27
2018-11-11T20:38:28.624Z,34.13
2018-11-11T20:40:59.097Z,36.23
2018-11-11T20:43:29.613Z,37.60
2018-11-11T20:46:00.973Z,36.70
2018-11-11T20:48:33.562Z,39.13
2018-11-11T20:51:03.320Z,37.30
2018-11-11T20:53:34.746Z,38.50
2018-11-11T20:56:05.243Z,38.57
2018-11-11T20:58:34.760Z,39.57
2018-11-11T21:01:05.965Z,37.33
2018-11-11T21:03:35.572Z,39.00
2018-11-11T21:06:06.122Z,39.77
2018-11-11T21:08:36.341Z,42.87
2018-11-11T21:11:06.131Z,42.80
2018-11-11T21:13:36.512Z,41.03
2018-11-11T21:16:07.208Z,40.57
2018-11-11T21:18:36.819Z,42.47
2018-11-11T21:21:07.200Z,41.97
2018-11-11T21:23:36.913Z,38.87
2018-11-11T21:26:06.813Z,38.60
2018-11-11T21:28:37.662Z,41.63
2018-11-11T21:31:06.988Z,39.03
2018-11-11T21:33:37.134Z,36.30
2018-11-11T21:36:08.345Z,34.53
2018-11-11T21:38:37.746Z,37.40
2018-11-11T21:41:07.910Z,32.50
2018-11-11T21:43:37.271Z,25.97
2018-11-11T21:46:06.760Z,32.90
2018-11-11T21:48:36.024Z,26.50
2018-11-11T21:51:05.404Z,29.17
2018-11-11T21:53:37.678Z,28.47
2018-11-11T21:56:07.203Z,32.43
2018-11-11T21:58:36.304Z,27.43
2018-11-11T22:01:06.532Z,23.63
2018-11-11T22:03:35.366Z,23.40
2018-11-11T22:06:05.096Z,21.30
2018-11-11T22:08:34.068Z,24.43
2018-11-11T22:11:02.720Z,22.67
2018-11-11T22:13:32.005Z,24.70
2018-11-11T22:16:01.491Z,25.93
2018-11-11T22:18:29.947Z,25.87
2018-11-11T22:20:58.427Z,42.63
2018-11-11T22:23:26.947Z,49.90
2018-11-11T22:25:55.553Z,42.37
2018-11-11T22:28:24.019Z,52.80
2018-11-11T22:30:52.867Z,50.00
2018-11-11T22:33:21.323Z,43.23
2018-11-11T22:35:49.760Z,34.20
2018-11-11T22:38:18.287Z,39.23
2018-11-11T22:40:46.724Z,38.50
2018-11-11T22:43:15.133Z,39.17
2018-11-11T22:45:43.687Z,36.50
2018-11-11T22:48:12.225Z,42.00
2018-11-11T22:50:40.653Z,36.93
2018-11-11T22:53:09.089Z,34.77
2018-11-11T22:55:37.505Z,37.90
2018-11-11T22:58:06.053Z,33.30
2018-11-11T23:00:34.653Z,36.47
2018-11-11T23:03:03.175Z,34.60
2018-11-11T23:05:31.667Z,41.57
2018-11-11T23:08:00.141Z,43.63
2018-11-11T23:10:28.713Z,36.40
2018-11-11T23:12:57.114Z,36.50
2018-11-11T23:15:25.541Z,33.53
2018-11-11T23:17:54.039Z,33.30
2018-11-11T23:20:22.508Z,35.47
2018-11-11T23:22:50.991Z,34.23
2018-11-11T23:25:20.453Z,30.00
2018-11-11T23:27:48.946Z,30.97
2018-11-11T23:30:21.611Z,33.27
2018-11-11T23:32:50.789Z,30.70
2018-11-11T23:35:19.497Z,33.77
2018-11-11T23:37:48.053Z,34.63
2018-11-11T23:40:17.576Z,30.90
2018-11-11T23:42:46.678Z,34.87
2018-11-11T23:45:15.217Z,33.33
2018-11-11T23:47:43.633Z,31.43
2018-11-11T23:50:14.150Z,33.30
2018-11-11T23:52:43.261Z,29.10
2018-11-11T23:55:13.263Z,30.97
2018-11-11T23:57:41.873Z,29.07
